• Join FlightAware (Why Join?)
  • Login
  • US Flag 
07:16AM EST


 

Airport Tracker/Info


-or-


 

Live Flight TrackerFlight Track Log ✈ SWA34 ✈ 26-Apr-2013 ✈ KFLL - KJAX

Flight Track Log - Related Links

Times and Time Zones

All times are in EDT time to prevent confusion due to time zone crossing. See the SWA34 flight status page for this flight to view local times or setup timezone preferences in your user account.

Time Position Orientation Groundspeed Altitude Reporting Facility
EDT Latitude Longitude Course Direction KTS MPH feet Rate Location/Type
07:01AM 26.0750 -80.1389 89° East 165 190 900  Level Miami Center
07:01AM 26.0753 -80.1250 89° East 162 186 1,500 2,220 Climbing Miami Center
07:02AM 26.0953 -80.0656 69° East 189 217 3,800 2,400 Climbing Miami Center
07:03AM 26.1511 -80.0878 340° North 151 174 6,300 3,000 Climbing Miami Center
07:04AM 26.2128 -80.1358 325° Northwest 194 223 9,900 3,000 Climbing Miami Center
07:05AM 26.2764 -80.1864 325° Northwest 274 315 12,400 2,820 Climbing Miami Center
07:06AM 26.3692 -80.2353 335° Northwest 316 364 15,600 2,820 Climbing Miami Center
07:07AM 26.4500 -80.2722 338° Northwest 348 400 18,100 2,580 Climbing Miami Center
07:08AM 26.5575 -80.3194 339° North 361 415 20,800 2,280 Climbing Miami Center
07:09AM 26.6442 -80.3592 338° Northwest 377 434 22,700 2,400 Climbing Miami Center
07:10AM 26.7556 -80.4114 337° Northwest 390 449 25,600 2,100 Climbing Miami Center
07:11AM 26.8589 -80.4589 338° Northwest 390 449 26,900 660 Climbing Miami Center
07:12AM 26.9622 -80.5064 338° Northwest 390 449 27,000  Climbing Miami Center
07:13AM 27.0694 -80.5564 337° Northwest 390 449 26,900  Descending Miami Center
07:14AM 27.1725 -80.6039 338° Northwest 395 455 27,000  Climbing Miami Center
07:15AM 27.2778 -80.6517 338° Northwest 395 455 27,000  Level Miami Center
07:16AM 27.3808 -80.7019 337° Northwest 400 460 27,000  Level Miami Center
07:17AM 27.4883 -80.7475 339° North 405 466 27,000  Level Miami Center
07:18AM 27.5933 -80.7981 337° Northwest 405 466 27,000 -60 Level Miami Center
07:19AM 27.7006 -80.8464 338° Northwest 405 466 26,900  Descending Miami Center
07:20AM 27.8078 -80.8944 338° Northwest 410 472 27,000  Climbing Miami Center
07:21AM 27.9128 -80.9453 337° Northwest 410 472 27,000  Level Miami Center
07:22AM 28.0158 -80.9936 338° Northwest 410 472 27,000  Level Miami Center
07:23AM 28.1208 -81.0422 338° Northwest 410 472 27,000  Level Miami Center
07:24AM 28.2236 -81.0908 337° Northwest 410 472 27,000  Level Miami Center
07:26AM 28.3992 -81.1747 337° Northwest 402 463 27,000  Level Jacksonville Center
07:27AM 28.5000 -81.2225 337° Northwest 396 456 27,000 -420 Level Jacksonville Center
07:28AM 28.6031 -81.2706 338° Northwest 396 456 26,200 -960 Descending Jacksonville Center
07:29AM 28.6994 -81.3161 337° Northwest 391 450 25,100 -1,140 Descending Jacksonville Center
07:30AM 28.7939 -81.3597 338° Northwest 380 437 24,000 -1,020 Descending Jacksonville Center
07:31AM 28.8944 -81.3725 354° North 364 419 23,100 -960 Descending Jacksonville Center
07:32AM 28.9925 -81.3806 356° North 358 412 22,100 -1,080 Descending Jacksonville Center
07:33AM 29.0969 -81.3931 354° North 358 412 21,100 -1,080 Descending Jacksonville Center
07:33AM 29.1639 -81.4017 354° North 355 409 20,400 -960 Descending Jacksonville Center
07:34AM 29.1911 -81.4011 North 353 406 20,100 -1,020 Descending Jacksonville Center
07:34AM 29.2539 -81.4097 353° North 349 402 19,500 -1,020 Descending Jacksonville Center
07:35AM 29.2872 -81.4092 North 353 406 19,100 -1,020 Descending Jacksonville Center
07:35AM 29.3500 -81.4203 351° North 348 400 18,500 -1,020 Descending Jacksonville Center
07:36AM 29.3917 -81.4244 355° North 348 400 18,100 -720 Descending Jacksonville Center
07:36AM 29.4439 -81.4283 356° North 342 394 17,800 -600 Descending Jacksonville Center
07:37AM 29.4858 -81.4325 355° North 342 394 17,500 -1,500 Descending Jacksonville Center
07:37AM 29.5483 -81.4411 353° North 333 383 16,200 -1,740 Descending Jacksonville Center
07:38AM 29.5756 -81.4431 356° North 337 388 15,800 -1,920 Descending Jacksonville Center
07:38AM 29.6219 -81.4878 320° Northwest 316 364 14,300 -2,040 Descending Jacksonville Center
07:39AM 29.6431 -81.5019 330° Northwest 306 352 13,800 -1,200 Descending Jacksonville Center
07:39AM 29.6853 -81.5539 313° West 296 341 13,100 -840 Descending Jacksonville Center
07:40AM 29.7003 -81.5728 312° West 297 342 13,000 -120 Descending Jacksonville Center
07:40AM 29.7425 -81.6225 314° West 302 348 13,000  Level Jacksonville Center
07:41AM 29.7614 -81.6414 319° Northwest 297 342 13,000 -120 Level Jacksonville Center
07:41AM 29.8261 -81.6381 North 324 373 12,900 -420 Descending Jacksonville Center
07:42AM 29.8469 -81.6378 North 281 323 12,600 -1,560 Descending Jacksonville Center
07:42AM 29.9011 -81.6181 18° North 306 352 11,500 -1,440 Descending Jacksonville Center
07:44AM 29.9867 -81.6264 355° North 255 293 10,100 -1,380 Descending Jacksonville Center
07:45AM 30.0539 -81.6494 343° North 251 289 8,700 -1,620 Descending Jacksonville Center
07:46AM 30.1231 -81.6797 339° North 258 297 6,900 -1,740 Descending Jacksonville Center
07:47AM 30.1900 -81.7031 343° North 267 307 5,200 -1,560 Descending Jacksonville Center
07:48AM 30.2592 -81.7286 342° North 258 297 3,800 -1,080 Descending Jacksonville Center
07:49AM 30.3325 -81.7589 340° North 246 283 3,000 -660 Descending Jacksonville Center
07:50AM 30.4017 -81.7847 342° North 227 261 2,400 -600 Descending Jacksonville Center
07:51AM 30.4728 -81.8103 343° North 215 247 1,700 -360 Descending Jacksonville Center
07:52AM 30.5233 -81.8556 322° Northwest 231 266 1,700  Level Jacksonville Center
07:53AM 30.5714 -81.8719 344° North 210 242 1,700  Level Jacksonville Center
07:54AM 30.5711 -81.8164 90° East 189 217 1,700  Level Jacksonville Center
07:55AM 30.5542 -81.7878 125° Southeast 187 215 1,700 -420 Level Jacksonville Center
07:56AM 30.5244 -81.7494 132° Southeast 134 154 1,100 -660 Descending Jacksonville Center
07:57AM 30.4928 -81.7089 132° Southeast 130 150 200 -720 Descending Jacksonville Center
07:59AM 30.4833 -81.6833 311° West  Level FlightAware Approximate
08:06AM 30.4941 -81.6879 311° West  Level Estimated